クライストチャーチ の空港の天気 - METARとTAF

クライストチャーチ国際空港 ( NZCH / CHC ) - ニュージーランド クライストチャーチ
飛行場実況気象(Metar)
観測時間10/26 10:00 NZDT (10/25 21:00 UTC)
風向・風速南西 5m/s
視程5000m
天気現象弱い雨 もや
全天の8割程度の雲 雲底高度 210m
気温11℃
湿度94%
気圧1018hPa
METARNZCH 252100Z AUTO 23010KT 5000 -RA BR BKN007/// 11/10 Q1018 BECMG 9999
過去の天気等 Google飛行場航空写真 Wunderground天気予報

過去48時間のMETAR

飛行場予報(TAF)
発表時間: 10/26 08:57 NZDT (10/25 19:57 UTC)
予報対象時間: 26日8時 NZDT ~ 27日7時 NZDT
風向・風速南南西 6m/s
視程10km以上
天気現象弱い雨
全天の8割程度の雲 雲底高度 240m
26日8時 NZDT ~ 26日12時 NZDT に一時的に
視程4000m
天気現象雨霧雨
全天の8割程度の雲 雲底高度 150m
26日12時 NZDT ~ 26日14時 NZDT に徐々に
全天の8割程度の雲 雲底高度 370m
26日12時 NZDT ~ 26日22時 NZDT に一時的に
視程7000m
天気現象
26日20時 NZDT ~ 26日22時 NZDT に徐々に
風向・風速西北西 3m/s
TAF AMD NZCH 251957Z 2519/2618 20012KT 9999 -RA BKN008
TEMPO 2519/2523 4000 RADZ BKN005
BECMG 2523/2601 BKN012
TEMPO 2523/2609 7000 RA
BECMG 2607/2609 29005KT